Time;durP1;ratioP1;P1;durP2;ratioP2;P2;SDS_P1;SDS_P2;PMS_P1;PMS_P2;Temp;Humidity;BMP_temperature;BMP_pressure;BME280_temperature;BME280_humidity;BME280_pressure;Samples;Min_cycle;Max_cycle;Signal;HPM_P1;HPM_P2
2022/11/18 09:00:32;;;;;;;2.53;0.90;;;;;;;20.25;47.92;100537.47;4768418;27;8646436;-48
2022/11/18 09:03:00;;;;;;;4.20;0.77;;;;;;;21.36;45.27;100537.03;5059811;28;20068;-46
2022/11/18 09:05:27;;;;;;;1.45;0.50;;;;;;;22.18;42.92;100539.19;5068499;28;20035;-51
2022/11/18 09:07:54;;;;;;;2.25;0.50;;;;;;;22.75;41.87;100553.00;5067207;28;20025;-45
2022/11/18 09:10:21;;;;;;;2.28;0.70;;;;;;;23.23;40.37;100539.56;5063534;28;20067;-45
2022/11/18 09:12:48;;;;;;;2.72;0.68;;;;;;;23.40;39.94;100539.75;5068483;28;20095;-45
2022/11/18 09:15:15;;;;;;;2.95;0.93;;;;;;;23.51;39.90;100536.31;5064281;28;20482;-45
2022/11/18 09:17:44;;;;;;;1.13;0.40;;;;;;;23.61;39.49;100541.66;5067966;28;20416;-45
2022/11/18 09:20:11;;;;;;;1.60;0.60;;;;;;;23.74;39.38;100545.25;5066212;28;20035;-45
2022/11/18 09:22:39;;;;;;;2.83;0.70;;;;;;;23.89;39.27;100540.13;5067876;28;20028;-46
2022/11/18 09:25:07;;;;;;;2.22;0.57;;;;;;;23.96;38.82;100539.31;5067887;28;20051;-45
2022/11/18 09:27:36;;;;;;;1.35;0.50;;;;;;;24.01;38.73;100535.84;5068015;28;20056;-45
2022/11/18 09:30:04;;;;;;;1.65;0.50;;;;;;;24.11;38.59;100535.91;5059210;28;20438;-45
2022/11/18 09:32:33;;;;;;;2.80;0.80;;;;;;;24.12;38.36;100526.28;5068060;28;20027;-47
2022/11/18 09:35:00;;;;;;;1.05;0.47;;;;;;;24.20;38.38;100540.31;5066789;28;20024;-46
2022/11/18 09:37:27;;;;;;;3.20;0.75;;;;;;;24.17;38.41;100547.28;5067863;28;20131;-45
2022/11/18 09:39:55;;;;;;;1.58;0.40;;;;;;;24.14;38.69;100550.75;5063920;28;20083;-45
2022/11/18 09:42:50;;;;;;;2.20;0.57;;;;;;;24.08;38.96;100548.09;5068096;28;20064;-45
2022/11/18 09:45:38;;;;;;;1.67;0.80;;;;;;;24.14;38.31;100555.16;5066513;28;20029;-53
2022/11/18 09:48:18;;;;;;;0.60;0.40;;;;;;;24.08;38.64;100563.81;5068343;28;20032;-48
2022/11/18 09:50:45;;;;;;;2.55;0.70;;;;;;;24.11;38.75;100564.75;5065266;28;20039;-49
2022/11/18 09:53:25;;;;;;;3.00;0.68;;;;;;;24.11;38.48;100569.09;5066241;28;20082;-48
2022/11/18 09:55:53;;;;;;;4.15;0.98;;;;;;;24.18;38.36;100565.66;5067252;28;20029;-54
2022/11/18 09:58:30;;;;;;;3.83;0.73;;;;;;;24.21;38.19;100570.03;5063574;28;20028;-52
2022/11/18 10:00:57;;;;;;;1.90;0.60;;;;;;;24.17;38.14;100563.00;5057352;28;20032;-47
2022/11/18 10:03:31;;;;;;;2.83;0.70;;;;;;;24.19;38.23;100571.75;5066718;28;20113;-46
2022/11/18 10:06:08;;;;;;;1.50;0.68;;;;;;;24.18;38.57;100576.13;5067196;28;20116;-45
2022/11/18 10:09:05;;;;;;;3.40;0.65;;;;;;;24.18;38.67;100577.84;5062179;28;20033;-50
2022/11/18 10:11:43;;;;;;;3.75;0.90;;;;;;;24.19;38.47;100574.38;5051054;28;20177;-55
2022/11/18 10:14:30;;;;;;;2.03;0.50;;;;;;;24.30;38.13;100575.34;5048957;28;20035;-46
2022/11/18 10:17:08;;;;;;;1.88;0.65;;;;;;;24.28;38.12;100574.44;5035725;28;20033;-45
2022/11/18 10:19:38;;;;;;;3.15;0.70;;;;;;;24.29;38.16;100578.81;5048291;28;20094;-52
2022/11/18 10:22:28;;;;;;;2.25;0.85;;;;;;;24.27;38.30;100581.41;5049402;28;20055;-47
2022/11/18 10:24:57;;;;;;;1.40;0.55;;;;;;;24.25;37.96;100587.53;5052526;28;20038;-45
2022/11/18 10:27:47;;;;;;;2.10;0.77;;;;;;;24.26;38.44;100589.28;5053392;28;20036;-46
2022/11/18 10:30:16;;;;;;;2.25;0.57;;;;;;;24.25;38.50;100585.75;5049586;28;20037;-54
2022/11/18 10:33:04;;;;;;;2.53;0.60;;;;;;;24.21;38.39;100599.75;5045968;28;20052;-47
2022/11/18 10:35:37;;;;;;;1.15;0.50;;;;;;;24.22;38.34;100603.22;5053547;28;20470;-52
2022/11/18 10:38:17;;;;;;;1.73;0.88;;;;;;;24.24;38.34;100607.59;5050424;28;20462;-52
2022/11/18 10:40:56;;;;;;;1.88;0.55;;;;;;;24.36;38.23;100606.81;5049991;28;20063;-46
2022/11/18 10:43:43;;;;;;;3.40;0.80;;;;;;;24.30;38.35;100596.31;5041359;28;20489;-45
2022/11/18 10:46:31;;;;;;;2.97;0.55;;;;;;;24.43;37.74;100602.47;5043601;28;20048;-44
2022/11/18 10:49:17;;;;;;;1.60;0.70;;;;;;;24.47;37.71;100598.13;5030075;28;20045;-46
2022/11/18 10:52:10;;;;;;;2.75;0.80;;;;;;;24.48;37.58;100589.41;5049462;28;20500;-49
2022/11/18 10:54:37;;;;;;;1.40;0.50;;;;;;;24.40;37.71;100587.59;5052544;28;20068;-48
2022/11/18 10:57:06;;;;;;;1.95;0.68;;;;;;;24.36;37.74;100591.06;5053442;28;20043;-55
2022/11/18 10:59:35;;;;;;;1.17;0.50;;;;;;;24.38;38.09;100591.09;5048344;28;20049;-45
2022/11/18 11:02:31;;;;;;;1.70;0.52;;;;;;;24.39;37.98;100595.47;5052659;28;20029;-45
2022/11/18 11:05:00;;;;;;;;;;;;;;;24.37;38.08;100597.22;5051173;28;20532;-54
2022/11/18 11:07:31;;;;;;;1.90;0.70;;;;;;;24.28;38.26;100592.78;5051772;28;20024;-46
2022/11/18 11:10:12;;;;;;;2.17;0.80;;;;;;;24.28;38.17;100590.16;5048286;28;20045;-52
2022/11/18 11:12:47;;;;;;;10.30;0.90;;;;;;;24.28;38.42;100598.91;5052684;28;20563;-45
2022/11/18 11:15:16;;;;;;;;;;;;;;;24.39;38.03;100593.72;5048085;28;20116;-46
2022/11/18 11:18:48;;;;;;;4.07;0.80;;;;;;;24.54;37.69;100590.31;5053046;28;19995;-45
2022/11/18 11:20:54;;;;;;;1.88;0.93;;;;;;;24.46;37.80;100599.00;5048000;28;20045;-51
2022/11/18 11:23:25;;;;;;;1.90;0.40;;;;;;;24.51;37.50;100590.28;5050313;28;20036;-52
2022/11/18 11:26:08;;;;;;;1.38;0.63;;;;;;;24.47;37.42;100590.28;5052929;28;20024;-46
2022/11/18 11:28:41;;;;;;;1.73;1.13;;;;;;;24.47;37.53;100599.00;5047102;28;20025;-45
2022/11/18 11:31:41;;;;;;;2.75;0.80;;;;;;;24.43;38.00;100592.88;5052529;28;20075;-45
2022/11/18 11:34:43;;;;;;;1.95;0.70;;;;;;;24.42;37.65;100592.84;5058102;28;20048;-46
2022/11/18 11:37:29;;;;;;;2.38;0.68;;;;;;;24.52;37.37;100593.78;5051041;28;20044;-45
2022/11/18 11:40:17;;;;;;;2.45;0.80;;;;;;;24.58;37.35;100585.94;5047634;28;20033;-45
2022/11/18 11:43:06;;;;;;;1.08;0.60;;;;;;;24.55;37.38;100588.53;5046614;28;20056;-46
2022/11/18 11:46:00;;;;;;;4.43;0.63;;;;;;;24.54;37.42;100592.03;5041626;28;20044;-49
2022/11/18 11:48:47;;;;;;;3.83;0.73;;;;;;;24.56;37.30;100587.69;5048215;28;20098;-53
2022/11/18 11:51:54;;;;;;;1.98;0.60;;;;;;;24.64;37.30;100582.47;5041062;28;20123;-46
2022/11/18 11:54:23;;;;;;;3.20;1.20;;;;;;;24.62;37.20;100585.09;5051498;28;20051;-50
2022/11/18 11:57:04;;;;;;;2.20;0.50;;;;;;;24.58;37.48;100589.44;5052105;28;20025;-51
2022/11/18 11:59:52;;;;;;;2.05;1.05;;;;;;;24.63;37.47;100578.97;5047284;28;20065;-46
2022/11/18 12:02:40;;;;;;;2.85;0.70;;;;;;;24.66;37.48;100585.97;5047971;28;20504;-47
2022/11/18 12:05:29;;;;;;;3.53;0.90;;;;;;;24.62;37.31;100582.47;5044336;28;20062;-45
2022/11/18 12:08:00;;;;;;;4.88;0.70;;;;;;;24.61;37.31;100577.19;5042256;28;20394;-49
2022/11/18 12:10:29;;;;;;;2.20;0.60;;;;;;;24.59;37.47;100582.47;5044299;28;20029;-52
2022/11/18 12:13:28;;;;;;;4.78;0.40;;;;;;;24.54;37.65;100579.81;5039773;28;20029;-53
2022/11/18 12:16:19;;;;;;;3.92;0.65;;;;;;;24.55;37.33;100581.56;5045970;28;20021;-51
2022/11/18 12:18:50;;;;;;;4.00;0.63;;;;;;;24.65;37.29;100584.22;5043798;28;20150;-52
2022/11/18 12:21:46;;;;;;;1.77;0.70;;;;;;;24.64;37.61;100593.84;5051683;28;20044;-49
2022/11/18 12:24:35;;;;;;;1.75;0.57;;;;;;;24.62;37.62;100586.81;5047782;28;20037;-48
2022/11/18 12:27:06;;;;;;;1.85;0.50;;;;;;;24.62;37.37;100582.47;5045441;28;20037;-44
2022/11/18 12:29:54;;;;;;;2.47;0.55;;;;;;;24.54;37.86;100587.69;5049397;28;20068;-49
2022/11/18 12:32:42;;;;;;;1.52;0.40;;;;;;;24.60;37.50;100578.06;5044840;28;20048;-50
2022/11/18 12:35:13;;;;;;;2.58;0.80;;;;;;;24.64;37.38;100582.47;5047994;28;20040;-48
2022/11/18 12:38:01;;;;;;;2.67;0.63;;;;;;;24.61;37.45;100580.72;5051635;28;20080;-52
2022/11/18 12:40:49;;;;;;;1.50;0.55;;;;;;;24.65;37.50;100582.50;5047003;28;20051;-49
2022/11/18 12:44:08;;;;;;;0.90;0.60;;;;;;;24.70;37.54;100569.41;5049668;28;20031;-47
2022/11/18 12:46:52;;;;;;;1.33;0.40;;;;;;;24.61;37.44;100580.72;5045049;28;20041;-47
2022/11/18 12:49:23;;;;;;;2.38;0.70;;;;;;;24.50;37.69;100585.91;5046252;28;20052;-49
2022/11/18 12:51:57;;;;;;;2.38;0.45;;;;;;;24.50;37.81;100588.53;5051318;28;20029;-46
2022/11/18 12:54:34;;;;;;;2.50;0.45;;;;;;;24.55;37.60;100584.19;5051465;28;20108;-46
2022/11/18 12:57:13;;;;;;;2.35;0.73;;;;;;;24.54;37.85;100585.06;5047297;28;20104;-47
2022/11/18 12:59:41;;;;;;;1.88;0.60;;;;;;;24.55;37.62;100585.94;5045224;28;20053;-45
2022/11/18 13:02:13;;;;;;;4.22;0.77;;;;;;;24.57;37.85;100592.06;5051390;28;20028;-53
2022/11/18 13:04:41;;;;;;;4.00;0.60;;;;;;;24.68;37.55;100592.09;5051076;28;20029;-47
2022/11/18 13:08:11;;;;;;;4.10;0.95;;;;;;;24.67;37.35;100578.09;5050577;28;20457;-53
2022/11/18 13:10:00;;;;;;;4.28;0.60;;;;;;;24.65;37.52;100587.75;5048084;28;20128;-46
2022/11/18 13:12:31;;;;;;;2.55;0.93;;;;;;;24.59;37.79;100587.69;5051165;28;20470;-45
2022/11/18 13:17:50;;;;;;;4.95;0.70;;;;;;;24.61;37.60;100599.06;5047969;28;20516;-56
2022/11/18 13:20:38;;;;;;;1.20;0.55;;;;;;;24.55;38.07;100591.16;5045950;28;20570;-45
2022/11/18 13:23:54;;;;;;;2.08;0.52;;;;;;;24.58;37.93;100597.28;5037766;28;20497;-43
2022/11/18 13:26:26;;;;;;;1.55;0.70;;;;;;;24.68;37.72;100603.47;5029009;28;20116;-43
2022/11/18 13:28:54;;;;;;;2.17;0.40;;;;;;;24.68;37.69;100610.47;5013805;28;20025;-45
2022/11/18 13:31:25;;;;;;;2.17;0.63;;;;;;;24.67;37.83;100599.09;5032071;28;20100;-46
2022/11/18 13:33:54;;;;;;;1.83;0.68;;;;;;;24.66;37.87;100602.56;5031801;28;20116;-47
2022/11/18 13:36:25;;;;;;;1.75;0.57;;;;;;;24.64;37.72;100598.19;5031478;28;20030;-45
2022/11/18 13:38:57;;;;;;;1.95;0.88;;;;;;;24.62;37.79;100602.56;5031873;28;20056;-45
2022/11/18 13:41:31;;;;;;;3.22;0.60;;;;;;;24.62;38.02;100602.56;5032065;28;20041;-45
2022/11/18 13:44:22;;;;;;;2.38;0.70;;;;;;;24.60;37.85;100597.31;5032144;28;20101;-44
2022/11/18 13:46:54;;;;;;;2.67;0.75;;;;;;;24.56;38.21;100590.31;5033331;28;20088;-47
2022/11/18 13:49:32;;;;;;;3.88;0.50;;;;;;;24.53;38.24;100585.94;5035488;28;20021;-54
2022/11/18 13:52:01;;;;;;;1.48;0.40;;;;;;;24.56;38.15;100587.69;5035312;28;20028;-54
2022/11/18 13:54:30;;;;;;;1.92;0.80;;;;;;;24.57;37.84;100585.06;5035439;28;20026;-49
2022/11/18 13:56:58;;;;;;;2.67;0.43;;;;;;;24.56;38.38;100582.44;5052717;28;20053;-45
2022/11/18 13:59:28;;;;;;;1.88;0.52;;;;;;;24.48;38.12;100590.25;5053213;28;20076;-47
2022/11/18 14:01:59;;;;;;;2.63;0.80;;;;;;;24.49;38.23;100586.78;5037561;28;20031;-48
2022/11/18 14:04:30;;;;;;;2.72;0.60;;;;;;;24.58;38.15;100585.94;5055293;28;20103;-50
2022/11/18 14:07:27;;;;;;;3.67;0.70;;;;;;;24.53;38.11;100590.28;5054941;28;20111;-48
2022/11/18 14:09:59;;;;;;;1.65;0.50;;;;;;;24.57;38.12;100586.81;5051733;28;20464;-51
2022/11/18 14:12:31;;;;;;;1.40;0.45;;;;;;;24.54;38.29;100590.31;5055044;28;20393;-54
2022/11/18 14:15:22;;;;;;;2.22;0.70;;;;;;;24.52;38.18;100585.91;5055121;28;20028;-51
2022/11/18 14:17:57;;;;;;;1.30;0.40;;;;;;;24.52;38.30;100580.66;5047077;28;20061;-47
2022/11/18 14:20:27;;;;;;;4.38;0.57;;;;;;;24.49;38.31;100580.66;5053371;28;20397;-53
2022/11/18 14:22:58;;;;;;;3.72;0.77;;;;;;;24.41;38.42;100568.38;5054392;28;20096;-51
2022/11/18 14:25:28;;;;;;;7.95;1.15;;;;;;;24.41;38.31;100577.97;5054906;28;20040;-47
2022/11/18 14:28:09;;;;;;;2.25;0.90;;;;;;;24.40;38.66;100582.38;5054603;28;20048;-53
2022/11/18 14:30:43;;;;;;;4.75;0.85;;;;;;;24.40;38.53;100571.88;5054590;28;20033;-48
2022/11/18 14:33:32;;;;;;;1.88;0.70;;;;;;;24.46;38.31;100576.28;5053332;28;20037;-49
2022/11/18 14:36:23;;;;;;;2.13;0.60;;;;;;;24.50;38.22;100585.00;5037779;28;20401;-49
2022/11/18 14:38:53;;;;;;;5.05;0.73;;;;;;;24.40;38.48;100573.63;5054451;28;20025;-46
2022/11/18 14:42:02;;;;;;;4.18;0.50;;;;;;;24.43;38.19;100587.63;5054333;28;20036;-53
2022/11/18 14:44:09;;;;;;;2.90;0.63;;;;;;;24.43;37.98;100595.50;5047454;28;20128;-48
2022/11/18 14:46:38;;;;;;;2.90;0.70;;;;;;;24.41;38.32;100584.13;5054287;28;20530;-53
2022/11/18 14:49:11;;;;;;;0.82;0.35;;;;;;;24.40;38.26;100589.38;5054472;28;20036;-45
2022/11/18 14:51:39;;;;;;;1.92;0.50;;;;;;;24.43;38.26;100586.72;5052892;28;20067;-45
2022/11/18 14:54:07;;;;;;;2.80;0.68;;;;;;;24.43;38.39;100587.63;5054191;28;20043;-45
2022/11/18 14:56:35;;;;;;;2.97;0.60;;;;;;;24.41;38.15;100593.72;5054109;28;20025;-46
2022/11/18 14:59:04;;;;;;;4.22;0.60;;;;;;;24.43;38.35;100595.50;5053733;28;20103;-45
2022/11/18 15:01:32;;;;;;;1.58;0.60;;;;;;;24.47;38.19;100604.25;5053946;28;20024;-45
2022/11/18 15:04:01;;;;;;;6.28;0.75;;;;;;;24.44;38.36;100601.59;5054109;28;20508;-51
2022/11/18 15:06:30;;;;;;;1.88;0.73;;;;;;;24.42;38.07;100605.97;5053661;28;20032;-45
2022/11/18 15:08:58;;;;;;;1.60;0.50;;;;;;;24.39;38.68;100606.81;5053837;28;20033;-48
2022/11/18 15:11:27;;;;;;;1.55;0.82;;;;;;;24.29;38.12;100586.69;5052639;28;20112;-44
2022/11/18 15:13:55;;;;;;;2.05;0.80;;;;;;;24.43;38.19;100610.34;5052595;28;20029;-45
2022/11/18 15:16:26;;;;;;;4.82;0.60;;;;;;;24.39;38.48;100609.44;5052657;28;20079;-50
2022/11/18 15:18:56;;;;;;;2.30;0.45;;;;;;;24.38;38.56;100615.56;5053470;28;20025;-45
2022/11/18 15:21:25;;;;;;;1.83;0.73;;;;;;;24.39;38.61;100619.94;5053844;28;20029;-45
2022/11/18 15:23:54;;;;;;;3.72;0.98;;;;;;;24.39;38.18;100626.94;5053676;28;20021;-45
2022/11/18 15:26:35;;;;;;;2.33;0.80;;;;;;;24.38;38.23;100626.03;5053161;28;20025;-47
2022/11/18 15:29:03;;;;;;;1.15;0.60;;;;;;;24.40;38.23;100629.56;5052610;28;20020;-45
2022/11/18 15:31:32;;;;;;;4.10;0.80;;;;;;;24.38;38.16;100615.56;5053715;28;20052;-45
2022/11/18 15:34:00;;;;;;;2.00;0.70;;;;;;;24.35;38.24;100619.91;5053572;28;20421;-54
2022/11/18 15:36:29;;;;;;;2.33;0.70;;;;;;;24.36;38.44;100622.53;5053210;28;20036;-46
2022/11/18 15:38:58;;;;;;;3.85;0.90;;;;;;;24.39;38.23;100614.69;5053319;28;20036;-45
2022/11/18 15:41:29;;;;;;;3.63;0.70;;;;;;;24.39;38.36;100625.19;5053258;28;20029;-45
2022/11/18 15:43:59;;;;;;;1.55;0.73;;;;;;;24.38;38.11;100619.94;5053187;28;20033;-45
2022/11/18 15:46:29;;;;;;;3.45;0.82;;;;;;;24.41;38.07;100631.31;5053363;28;20079;-48
2022/11/18 15:48:58;;;;;;;2.35;0.80;;;;;;;24.38;38.14;100633.03;5053368;28;20025;-48
2022/11/18 15:51:29;;;;;;;2.28;0.80;;;;;;;24.35;38.17;100638.25;5053537;28;20029;-46
2022/11/18 15:53:57;;;;;;;0.85;0.43;;;;;;;24.38;38.49;100640.91;5053383;28;20083;-50
2022/11/18 15:56:26;;;;;;;3.38;0.85;;;;;;;24.37;38.12;100647.03;5053348;28;20025;-46
2022/11/18 15:58:56;;;;;;;1.83;0.80;;;;;;;24.39;38.47;100646.16;5052673;28;20040;-50
2022/11/18 16:01:25;;;;;;;2.00;0.50;;;;;;;24.38;38.18;100639.16;5051878;28;20466;-54
2022/11/18 16:03:54;;;;;;;2.65;0.80;;;;;;;24.38;37.97;100648.78;5053019;28;20103;-50
2022/11/18 16:06:23;;;;;;;2.15;0.95;;;;;;;24.19;38.40;100629.41;5052828;28;20025;-49
2022/11/18 16:08:52;;;;;;;3.38;0.77;;;;;;;24.41;38.00;100654.00;5052627;28;20075;-52
2022/11/18 16:14:10;;;;;;;1.95;0.80;;;;;;;24.37;38.41;100658.38;5052446;28;20116;-48
2022/11/18 16:16:40;;;;;;;5.63;1.00;;;;;;;24.35;38.47;100661.84;5052611;28;20047;-54
2022/11/18 16:19:10;;;;;;;2.03;0.70;;;;;;;24.27;38.06;100649.56;5052788;28;20027;-48
2022/11/18 16:21:41;;;;;;;1.65;0.55;;;;;;;24.31;38.35;100660.97;5051329;28;20036;-46
2022/11/18 16:24:13;;;;;;;3.25;0.68;;;;;;;24.31;38.19;100663.59;5052683;28;20023;-49
2022/11/18 16:26:41;;;;;;;2.03;0.75;;;;;;;24.34;37.96;100668.81;5052295;28;20031;-48
2022/11/18 16:29:11;;;;;;;1.45;0.50;;;;;;;24.33;37.89;100667.06;5052776;28;20022;-47
2022/11/18 16:31:40;;;;;;;3.72;0.95;;;;;;;24.31;38.25;100668.84;5052601;28;20020;-47
2022/11/18 16:34:09;;;;;;;1.98;0.85;;;;;;;24.32;38.41;100678.47;5052292;28;20029;-48
2022/11/18 16:36:39;;;;;;;3.45;0.70;;;;;;;24.30;38.05;100679.28;5052042;28;20108;-53
2022/11/18 16:39:13;;;;;;;2.35;0.70;;;;;;;24.28;38.53;100674.06;5052411;28;20078;-55
2022/11/18 16:41:42;;;;;;;0.45;0.30;;;;;;;24.30;38.01;100679.28;5052209;28;20056;-47
2022/11/18 16:44:14;;;;;;;2.05;0.60;;;;;;;24.33;37.94;100676.69;5052556;28;20029;-46
2022/11/18 16:46:47;;;;;;;2.60;0.50;;;;;;;24.36;38.22;100685.44;5050918;28;20029;-48
2022/11/18 16:49:17;;;;;;;0.88;0.65;;;;;;;24.37;37.87;100696.84;5051294;28;20509;-52
2022/11/18 16:51:47;;;;;;;1.77;0.50;;;;;;;24.31;38.15;100696.78;5052168;28;20060;-50
2022/11/18 16:54:18;;;;;;;1.83;0.50;;;;;;;24.25;38.38;100692.38;5052428;28;20509;-49
2022/11/18 16:56:47;;;;;;;0.88;0.43;;;;;;;24.27;38.13;100694.13;5052538;28;20029;-45
2022/11/18 16:59:17;;;;;;;2.40;1.40;;;;;;;24.34;37.88;100702.91;5052149;28;20048;-50
2022/11/18 17:01:46;;;;;;;1.38;0.47;;;;;;;24.36;38.04;100710.81;5052531;28;20036;-48
2022/11/18 17:04:14;;;;;;;2.35;0.70;;;;;;;24.36;38.40;100709.03;5037432;28;20116;-44
2022/11/18 17:06:43;;;;;;;2.00;0.60;;;;;;;24.33;38.09;100719.50;5049992;28;20029;-54
2022/11/18 17:09:15;;;;;;;2.03;0.68;;;;;;;24.25;38.23;100719.44;5050633;28;20120;-48
2022/11/18 17:11:42;;;;;;;2.38;0.73;;;;;;;24.28;38.17;100713.38;5044974;28;20026;-45
2022/11/18 17:14:09;;;;;;;1.65;0.60;;;;;;;24.28;38.25;100727.34;5044608;28;20036;-49
2022/11/18 17:16:37;;;;;;;1.10;0.52;;;;;;;24.26;38.10;100726.44;5050544;28;20025;-46
2022/11/18 17:19:05;;;;;;;1.60;0.40;;;;;;;24.34;38.46;100733.50;5050853;28;20036;-46
2022/11/18 17:21:33;;;;;;;1.02;0.40;;;;;;;24.30;38.29;100737.84;5052478;28;20389;-46
2022/11/18 17:24:01;;;;;;;2.75;0.60;;;;;;;24.27;38.41;100732.59;5049651;28;20394;-45
2022/11/18 17:26:30;;;;;;;2.53;0.60;;;;;;;24.30;37.94;100743.09;5052812;28;20029;-51
2022/11/18 17:28:58;;;;;;;2.78;0.57;;;;;;;24.24;38.12;100730.78;5050874;28;20463;-45
2022/11/18 17:31:27;;;;;;;2.53;0.70;;;;;;;24.30;38.06;100743.09;5050824;28;20027;-49
2022/11/18 17:33:55;;;;;;;2.05;0.65;;;;;;;24.30;38.19;100745.72;5048656;28;20021;-45
2022/11/18 17:36:25;;;;;;;2.58;0.70;;;;;;;24.27;37.95;100749.16;5053872;28;20025;-49
2022/11/18 17:38:54;;;;;;;1.98;0.68;;;;;;;24.26;38.15;100752.66;5053920;28;20028;-46
2022/11/18 17:44:12;;;;;;;2.60;0.60;;;;;;;24.25;38.10;100757.91;5044212;28;20038;-45
2022/11/18 17:46:41;;;;;;;1.25;0.40;;;;;;;24.23;38.22;100757.00;5050959;28;20401;-48
2022/11/18 17:49:20;;;;;;;1.80;0.63;;;;;;;24.22;38.22;100764.00;5053490;28;20025;-45
2022/11/18 17:51:50;;;;;;;0.63;0.40;;;;;;;24.30;37.94;100769.31;5054644;28;20037;-51
2022/11/18 17:54:18;;;;;;;0.68;0.43;;;;;;;24.25;38.24;100763.16;5053592;28;20021;-48
2022/11/18 17:56:46;;;;;;;1.55;0.40;;;;;;;24.31;38.10;100770.19;5052668;28;20108;-45
2022/11/18 17:59:16;;;;;;;1.52;0.50;;;;;;;24.25;37.92;100756.16;5053972;28;20049;-48
2022/11/18 18:01:44;;;;;;;1.92;0.60;;;;;;;24.29;38.28;100767.56;5054425;28;20017;-48
2022/11/18 18:04:13;;;;;;;1.05;0.60;;;;;;;24.26;38.24;100770.16;5051677;28;20096;-52
2022/11/18 18:06:41;;;;;;;1.23;0.60;;;;;;;24.28;38.33;100766.66;5053800;28;20025;-45
2022/11/18 18:09:10;;;;;;;2.97;0.93;;;;;;;24.32;38.11;100771.94;5053583;28;20025;-51
2022/11/18 18:11:37;;;;;;;2.05;0.60;;;;;;;24.32;38.16;100778.06;5055003;28;20466;-45
2022/11/18 18:14:15;;;;;;;2.72;0.88;;;;;;;24.33;37.76;100774.56;5036352;28;20040;-51
2022/11/18 18:16:46;;;;;;;1.33;0.70;;;;;;;24.32;38.17;100766.69;5034761;28;20033;-57
2022/11/18 18:19:18;;;;;;;1.15;0.47;;;;;;;24.41;38.06;100775.50;5033431;28;20029;-50
2022/11/18 18:21:46;;;;;;;1.05;0.50;;;;;;;24.41;37.80;100764.13;5034912;28;20112;-47
2022/11/18 18:24:16;;;;;;;1.13;0.50;;;;;;;24.39;37.98;100760.66;5034149;28;20425;-49
2022/11/18 18:26:44;;;;;;;0.40;0.40;;;;;;;24.38;38.01;100767.63;5034349;28;20037;-49
2022/11/18 18:29:13;;;;;;;2.63;0.50;;;;;;;24.34;37.81;100772.81;5034244;28;20064;-49
2022/11/18 18:31:41;;;;;;;1.13;0.60;;;;;;;24.35;37.98;100780.69;5034156;28;20468;-48
2022/11/18 18:34:09;;;;;;;1.33;0.77;;;;;;;24.34;38.14;100778.94;5051799;28;20068;-46
2022/11/18 18:36:37;;;;;;;0.95;0.50;;;;;;;24.36;37.80;100781.59;5054368;28;20416;-45
2022/11/18 18:39:06;;;;;;;4.95;0.65;;;;;;;24.34;37.83;100783.31;5054245;28;20100;-45
2022/11/18 18:41:34;;;;;;;0.25;0.25;;;;;;;24.33;37.83;100778.94;5053419;28;20025;-48
2022/11/18 18:44:02;;;;;;;2.25;0.70;;;;;;;24.34;37.96;100786.81;5036462;28;20463;-51
2022/11/18 18:46:31;;;;;;;1.67;0.65;;;;;;;24.37;37.76;100797.31;5034359;28;20030;-47
2022/11/18 18:49:01;;;;;;;1.23;0.70;;;;;;;24.40;37.43;100799.13;5033746;28;20017;-49
2022/11/18 18:51:32;;;;;;;1.45;0.50;;;;;;;24.37;37.86;100802.56;5034565;28;20450;-46
2022/11/18 18:54:00;;;;;;;1.65;0.70;;;;;;;24.39;37.76;100802.59;5033731;28;20364;-51
2022/11/18 18:56:29;;;;;;;2.65;0.63;;;;;;;24.41;37.86;100801.72;5033882;28;20524;-46
2022/11/18 18:58:57;;;;;;;3.42;0.70;;;;;;;24.47;37.83;100806.16;5033626;28;20579;-46
2022/11/18 19:01:26;;;;;;;2.28;0.70;;;;;;;24.40;37.78;100805.22;5034129;28;20021;-46
2022/11/18 19:03:57;;;;;;;1.10;0.50;;;;;;;24.40;37.97;100809.59;5033019;28;20029;-45
2022/11/18 19:06:28;;;;;;;1.88;0.80;;;;;;;24.45;37.99;100812.25;5033002;28;20652;-46
2022/11/18 19:08:58;;;;;;;1.83;0.93;;;;;;;24.51;37.61;100818.44;5033464;28;20156;-47
2022/11/18 19:14:16;;;;;;;1.27;0.50;;;;;;;24.48;37.66;100822.78;5047805;28;20029;-46
2022/11/18 19:16:45;;;;;;;4.80;0.60;;;;;;;24.34;37.71;100817.41;5053836;28;20025;-48
2022/11/18 19:20:32;;;;;;;1.30;0.60;;;;;;;24.40;38.02;100835.81;5053462;28;20116;-47
2022/11/18 19:22:06;;;;;;;1.23;0.57;;;;;;;24.42;37.72;100827.09;5052702;28;20040;-46
2022/11/18 19:24:34;;;;;;;1.17;0.68;;;;;;;24.40;37.73;100823.56;5033780;28;20029;-49
2022/11/18 19:27:02;;;;;;;1.15;0.68;;;;;;;24.43;38.00;100844.59;5033280;28;20021;-46
2022/11/18 19:29:31;;;;;;;1.08;0.60;;;;;;;24.42;37.54;100837.56;5033756;28;20053;-46
2022/11/18 19:31:59;;;;;;;3.92;1.33;;;;;;;24.45;37.83;100843.72;5033318;28;20079;-45
2022/11/18 19:34:28;;;;;;;1.60;0.75;;;;;;;24.41;38.01;100837.53;5033566;28;20153;-45
2022/11/18 19:36:56;;;;;;;2.08;0.55;;;;;;;24.37;38.03;100834.03;5032438;28;20037;-46
2022/11/18 19:39:25;;;;;;;1.40;0.70;;;;;;;24.47;37.61;100842.00;5033313;28;20025;-46
2022/11/18 19:41:54;;;;;;;1.38;0.80;;;;;;;24.41;37.71;100848.94;5034130;28;20037;-46
2022/11/18 19:44:23;;;;;;;1.08;0.75;;;;;;;24.41;37.58;100851.56;5032993;28;20021;-53
2022/11/18 19:46:52;;;;;;;1.10;0.70;;;;;;;24.47;37.73;100853.34;5033641;28;20091;-53
2022/11/18 19:49:20;;;;;;;3.63;1.05;;;;;;;24.34;37.51;100844.47;5033375;28;20028;-48
2022/11/18 19:51:49;;;;;;;1.13;0.80;;;;;;;24.43;37.77;100860.31;5032115;28;20410;-46
2022/11/18 19:54:17;;;;;;;2.10;1.05;;;;;;;24.47;37.41;100861.22;5032808;28;20422;-48
2022/11/18 19:56:46;;;;;;;1.27;0.90;;;;;;;24.39;37.89;100862.91;5033554;28;20018;-51
2022/11/18 19:59:15;;;;;;;1.00;0.60;;;;;;;24.41;37.62;100858.53;5033233;28;20049;-46
2022/11/18 20:01:44;;;;;;;1.73;0.80;;;;;;;24.38;37.65;100858.53;5032470;28;20083;-49
2022/11/18 20:04:13;;;;;;;0.70;0.60;;;;;;;24.36;37.69;100858.47;5031869;28;20037;-47
2022/11/18 20:06:41;;;;;;;1.40;0.90;;;;;;;24.40;37.79;100862.03;5032828;28;20028;-47
2022/11/18 20:09:11;;;;;;;1.00;0.70;;;;;;;24.37;37.61;100875.97;5032589;28;20536;-47
2022/11/18 20:11:40;;;;;;;3.28;0.63;;;;;;;24.38;37.74;100882.13;5032864;28;20056;-49
2022/11/18 20:14:11;;;;;;;1.25;0.60;;;;;;;24.32;37.95;100882.94;5032912;28;20064;-54
2022/11/18 20:16:40;;;;;;;1.38;0.80;;;;;;;24.40;37.60;100890.88;5032896;28;20036;-47
2022/11/18 20:19:12;;;;;;;1.08;0.60;;;;;;;24.45;37.26;100888.28;5032798;28;20032;-55
2022/11/18 20:21:42;;;;;;;1.88;0.63;;;;;;;24.39;37.37;100894.38;5032938;28;20167;-52
2022/11/18 20:24:15;;;;;;;1.38;0.75;;;;;;;24.36;37.71;100895.19;5032594;28;20472;-49
2022/11/18 20:26:44;;;;;;;3.88;1.02;;;;;;;24.37;37.42;100899.56;5032585;28;20021;-52
2022/11/18 20:29:12;;;;;;;5.93;1.00;;;;;;;24.44;37.10;100903.13;5032362;28;20025;-46
